createdAt,value
2022-10-26T00:00:29.240Z,3.85
2022-10-26T00:01:19.889Z,3.92
2022-10-26T00:01:51.802Z,3.60
2022-10-26T00:02:23.745Z,3.40
2022-10-26T00:02:56.496Z,3.40
2022-10-26T00:03:28.339Z,3.58
2022-10-26T00:04:00.225Z,3.58
2022-10-26T00:04:32.060Z,3.37
2022-10-26T00:05:04.087Z,3.62
2022-10-26T00:05:36.095Z,3.87
2022-10-26T00:06:11.934Z,3.60
2022-10-26T00:06:43.753Z,3.83
2022-10-26T00:07:15.676Z,3.72
2022-10-26T00:07:47.887Z,4.10
2022-10-26T00:08:19.716Z,3.53
2022-10-26T00:08:52.557Z,4.05
2022-10-26T00:09:24.411Z,4.00
2022-10-26T00:09:56.215Z,3.25
2022-10-26T00:10:30.870Z,3.60
2022-10-26T00:11:04.222Z,3.78
2022-10-26T00:11:36.357Z,3.50
2022-10-26T00:12:08.526Z,3.83
2022-10-26T00:12:40.545Z,3.75
2022-10-26T00:13:12.980Z,4.00
2022-10-26T00:13:46.086Z,3.97
2022-10-26T00:14:18.211Z,4.05
2022-10-26T00:14:50.026Z,3.80
2022-10-26T00:15:22.079Z,4.65
2022-10-26T00:15:54.669Z,4.28
2022-10-26T00:16:28.079Z,4.18
2022-10-26T00:17:00.394Z,4.10
2022-10-26T00:17:32.357Z,4.10
2022-10-26T00:18:04.232Z,4.30
2022-10-26T00:18:36.240Z,4.12
2022-10-26T00:19:08.067Z,4.15
2022-10-26T00:19:40.039Z,4.22
2022-10-26T00:20:12.687Z,3.90
2022-10-26T00:20:44.507Z,4.35
2022-10-26T00:21:17.206Z,4.32
2022-10-26T00:21:49.117Z,3.75
2022-10-26T00:22:21.251Z,4.25
2022-10-26T00:22:53.123Z,4.37
2022-10-26T00:23:24.947Z,3.95
2022-10-26T00:23:58.723Z,4.20
2022-10-26T00:24:30.561Z,3.65
2022-10-26T00:25:02.497Z,3.87
2022-10-26T00:25:34.693Z,3.92
2022-10-26T00:26:06.924Z,4.25
2022-10-26T00:26:39.533Z,3.97
2022-10-26T00:27:11.369Z,4.32
2022-10-26T00:27:43.555Z,4.57
2022-10-26T00:28:15.404Z,4.60
2022-10-26T00:28:47.301Z,4.03
2022-10-26T00:29:19.190Z,4.03
2022-10-26T00:29:51.010Z,4.40
2022-10-26T00:30:22.834Z,4.10
2022-10-26T00:30:54.931Z,4.20
2022-10-26T00:31:26.835Z,4.20
2022-10-26T00:31:58.666Z,4.47
2022-10-26T00:32:30.621Z,4.70
2022-10-26T00:33:02.815Z,5.10
2022-10-26T00:33:34.769Z,4.35
2022-10-26T00:34:06.620Z,4.85
2022-10-26T00:34:38.501Z,4.37
2022-10-26T00:35:21.392Z,4.07
2022-10-26T00:36:00.791Z,4.80
2022-10-26T00:36:32.674Z,4.90
2022-10-26T00:37:04.574Z,4.43
2022-10-26T00:37:36.489Z,5.70
2022-10-26T00:38:09.511Z,3.95
2022-10-26T00:38:45.952Z,4.28
2022-10-26T00:39:17.928Z,4.47
2022-10-26T00:39:49.767Z,3.95
2022-10-26T00:40:21.921Z,4.50
2022-10-26T00:40:53.822Z,4.35
2022-10-26T00:41:29.964Z,3.87
2022-10-26T00:42:01.846Z,4.18
2022-10-26T00:42:33.745Z,4.10
2022-10-26T00:43:17.237Z,4.20
2022-10-26T00:43:50.304Z,4.15
2022-10-26T00:44:56.558Z,4.45
2022-10-26T00:45:30.514Z,4.55
2022-10-26T00:46:05.031Z,4.12
2022-10-26T00:46:38.644Z,4.65
2022-10-26T00:47:15.030Z,4.32
2022-10-26T00:47:56.296Z,4.35
2022-10-26T00:48:33.550Z,4.15
2022-10-26T00:49:15.506Z,4.40
2022-10-26T00:49:49.696Z,4.15
2022-10-26T00:50:36.430Z,4.37
2022-10-26T00:51:18.456Z,4.90
2022-10-26T00:51:53.591Z,4.10
2022-10-26T00:52:25.762Z,4.18
2022-10-26T00:52:59.720Z,3.83
2022-10-26T00:53:33.040Z,4.05
2022-10-26T00:54:10.201Z,3.87
2022-10-26T00:54:42.172Z,4.10
2022-10-26T00:55:14.172Z,4.12
2022-10-26T00:55:49.914Z,4.07
2022-10-26T00:56:21.938Z,3.90
2022-10-26T00:56:55.461Z,3.80
2022-10-26T00:57:27.561Z,3.80
2022-10-26T00:58:01.164Z,3.37
2022-10-26T00:58:34.643Z,3.92
2022-10-26T00:59:10.043Z,3.17
2022-10-26T00:59:43.964Z,3.65
2022-10-26T01:00:16.465Z,3.20
2022-10-26T01:00:49.860Z,3.90
2022-10-26T01:01:21.772Z,3.80
2022-10-26T01:01:53.864Z,3.65
2022-10-26T01:02:25.859Z,3.53
2022-10-26T01:02:59.798Z,3.55
2022-10-26T01:03:32.967Z,3.47
2022-10-26T01:04:05.037Z,4.03
2022-10-26T01:04:37.239Z,3.97
2022-10-26T01:05:09.724Z,4.28
2022-10-26T01:05:44.470Z,3.45
2022-10-26T01:06:16.430Z,3.22
2022-10-26T01:06:49.275Z,3.60
2022-10-26T01:07:58.997Z,3.12
2022-10-26T01:08:30.968Z,3.25
2022-10-26T01:09:03.972Z,3.37
2022-10-26T01:09:36.570Z,3.78
2022-10-26T01:10:09.708Z,3.20
2022-10-26T01:10:43.113Z,3.70
2022-10-26T01:11:15.144Z,3.30
2022-10-26T01:11:47.147Z,3.08
2022-10-26T01:12:18.979Z,2.97
2022-10-26T01:12:51.595Z,3.37
2022-10-26T01:13:25.148Z,3.10
2022-10-26T01:14:00.149Z,3.22
2022-10-26T01:14:33.322Z,2.90
2022-10-26T01:15:05.730Z,2.60
2022-10-26T01:16:06.410Z,3.25
2022-10-26T01:16:44.296Z,2.53
2022-10-26T01:17:36.376Z,2.55
2022-10-26T01:18:19.371Z,2.60
2022-10-26T01:19:23.386Z,2.95
2022-10-26T01:20:13.658Z,2.92
2022-10-26T01:21:28.982Z,2.60
2022-10-26T01:22:08.331Z,2.87
2022-10-26T01:23:02.877Z,2.47
2022-10-26T01:23:56.320Z,2.60
2022-10-26T01:24:58.561Z,2.83
2022-10-26T01:25:39.893Z,3.12
2022-10-26T01:26:39.000Z,2.87
2022-10-26T01:27:28.725Z,2.83
2022-10-26T01:28:06.548Z,3.08
2022-10-26T01:29:09.333Z,2.70
2022-10-26T01:29:59.644Z,2.97
2022-10-26T01:30:41.130Z,3.03
2022-10-26T01:31:20.071Z,2.80
2022-10-26T01:32:11.854Z,2.50
2022-10-26T01:33:02.257Z,2.58
2022-10-26T01:33:44.790Z,2.55
2022-10-26T01:34:34.494Z,2.80
2022-10-26T01:35:34.548Z,2.50
2022-10-26T01:36:16.537Z,2.78
2022-10-26T01:36:55.008Z,3.10
2022-10-26T01:37:30.970Z,2.85
2022-10-26T01:38:11.704Z,2.60
2022-10-26T01:39:58.358Z,2.65
2022-10-26T01:40:40.379Z,2.40
2022-10-26T01:41:59.459Z,2.30
2022-10-26T01:42:32.601Z,1.92
2022-10-26T01:43:09.453Z,2.42
2022-10-26T01:43:46.284Z,2.45
2022-10-26T01:44:30.306Z,2.45
2022-10-26T01:45:06.912Z,2.40
2022-10-26T01:45:43.821Z,2.67
2022-10-26T01:46:17.556Z,2.60
2022-10-26T01:46:53.223Z,2.40
2022-10-26T01:47:28.278Z,2.47
2022-10-26T01:48:02.727Z,2.42
2022-10-26T01:48:36.477Z,2.67
2022-10-26T01:49:11.908Z,2.80
2022-10-26T01:49:48.164Z,2.12
2022-10-26T01:50:21.001Z,2.58
2022-10-26T01:50:54.832Z,2.10
2022-10-26T01:51:27.633Z,2.20
2022-10-26T01:51:59.529Z,2.35
2022-10-26T01:52:31.421Z,2.28
2022-10-26T01:53:03.629Z,2.62
2022-10-26T01:53:35.683Z,2.50
2022-10-26T01:54:07.618Z,2.28
2022-10-26T01:54:39.541Z,2.45
2022-10-26T01:55:42.042Z,2.47
2022-10-26T01:56:22.312Z,2.00
2022-10-26T01:57:00.119Z,1.92
2022-10-26T01:57:35.576Z,1.85
2022-10-26T01:58:39.673Z,2.08
2022-10-26T01:59:40.456Z,2.35
2022-10-26T02:00:12.835Z,2.17
2022-10-26T02:00:58.711Z,2.22
2022-10-26T02:01:58.908Z,1.80
2022-10-26T02:02:52.838Z,2.00
2022-10-26T02:03:50.661Z,2.15
2022-10-26T02:04:37.560Z,2.20
2022-10-26T02:05:12.114Z,2.10
2022-10-26T02:06:30.407Z,2.12
2022-10-26T02:07:32.123Z,1.85
2022-10-26T02:08:31.778Z,2.10
2022-10-26T02:09:06.523Z,1.73
2022-10-26T02:10:10.904Z,2.40
2022-10-26T02:10:51.551Z,2.00
2022-10-26T02:11:40.677Z,2.33
2022-10-26T02:12:31.086Z,2.10
2022-10-26T02:13:41.408Z,2.22
2022-10-26T02:14:23.768Z,2.47
2022-10-26T02:15:11.233Z,2.10
2022-10-26T02:16:08.133Z,2.53
2022-10-26T02:16:53.405Z,2.25
2022-10-26T02:17:36.415Z,2.10
2022-10-26T02:18:23.299Z,2.50
2022-10-26T02:19:22.631Z,2.33
2022-10-26T02:20:02.198Z,2.30
2022-10-26T02:20:41.431Z,2.50
2022-10-26T02:21:20.098Z,2.22
2022-10-26T02:21:59.327Z,2.10
2022-10-26T02:22:47.159Z,2.28
2022-10-26T02:23:19.944Z,1.80
2022-10-26T02:23:55.743Z,2.33
2022-10-26T02:24:29.419Z,2.12
2022-10-26T02:25:07.837Z,2.20
2022-10-26T02:25:50.243Z,3.12
2022-10-26T02:26:25.403Z,2.17
2022-10-26T02:27:01.263Z,2.20
2022-10-26T02:27:40.340Z,2.03
2022-10-26T02:28:20.006Z,2.37
2022-10-26T02:28:56.251Z,1.90
2022-10-26T02:29:31.083Z,2.00
2022-10-26T02:30:05.387Z,1.92
2022-10-26T02:30:40.743Z,2.47
2022-10-26T02:31:15.028Z,1.87
2022-10-26T02:31:50.300Z,1.95
2022-10-26T02:32:28.815Z,2.33
2022-10-26T02:33:03.979Z,2.30
2022-10-26T02:33:40.619Z,1.90
2022-10-26T02:34:16.119Z,2.00
2022-10-26T02:34:51.629Z,2.30
2022-10-26T02:35:31.373Z,1.90
2022-10-26T02:36:06.784Z,2.00
2022-10-26T02:36:44.432Z,2.47
2022-10-26T02:37:19.878Z,1.90
2022-10-26T02:37:53.832Z,2.10
2022-10-26T02:38:29.279Z,2.53
2022-10-26T02:39:05.110Z,2.28
2022-10-26T02:39:39.393Z,1.62
2022-10-26T02:40:14.947Z,1.70
2022-10-26T02:40:51.367Z,2.10
2022-10-26T02:41:26.556Z,1.98
2022-10-26T02:42:01.631Z,2.08
2022-10-26T02:42:33.935Z,1.70
2022-10-26T02:43:11.404Z,2.00
2022-10-26T02:43:48.240Z,2.03
2022-10-26T02:44:27.654Z,2.08
2022-10-26T02:45:06.664Z,1.83
2022-10-26T02:45:46.451Z,2.40
2022-10-26T02:46:20.932Z,2.20
2022-10-26T02:46:54.107Z,2.10
2022-10-26T02:47:27.223Z,2.10
2022-10-26T02:47:59.250Z,2.10
2022-10-26T02:48:31.649Z,2.03
2022-10-26T02:49:03.940Z,2.00
2022-10-26T02:49:36.345Z,2.00
2022-10-26T02:50:08.732Z,2.47
2022-10-26T02:50:53.900Z,2.85
2022-10-26T02:51:37.475Z,2.28
2022-10-26T02:52:37.098Z,2.30
2022-10-26T02:53:24.251Z,2.22
2022-10-26T02:54:02.868Z,1.92
2022-10-26T02:54:54.095Z,2.10
2022-10-26T02:55:31.837Z,2.12
2022-10-26T02:56:11.046Z,2.03
2022-10-26T02:56:56.514Z,2.47
2022-10-26T02:57:40.808Z,2.15
2022-10-26T02:58:27.743Z,1.90
2022-10-26T02:59:05.696Z,2.50
2022-10-26T02:59:42.184Z,2.37
2022-10-26T03:00:18.560Z,2.37
2022-10-26T03:00:51.358Z,2.70
2022-10-26T03:01:23.786Z,2.25
2022-10-26T03:01:55.977Z,2.50
2022-10-26T03:02:30.205Z,2.37
2022-10-26T03:03:03.637Z,2.75
2022-10-26T03:03:35.598Z,3.80
2022-10-26T03:04:07.982Z,4.70
2022-10-26T03:04:40.280Z,4.53
2022-10-26T03:05:23.005Z,3.10
2022-10-26T03:05:54.845Z,3.15
2022-10-26T03:06:27.161Z,3.05
2022-10-26T03:06:59.087Z,4.00
2022-10-26T03:07:30.912Z,6.32
2022-10-26T03:08:03.428Z,5.87
2022-10-26T03:08:35.270Z,4.18
2022-10-26T03:09:07.149Z,5.22
2022-10-26T03:09:38.974Z,5.22
2022-10-26T03:10:11.392Z,4.78
2022-10-26T03:10:45.785Z,4.90
2022-10-26T03:11:17.896Z,4.68
2022-10-26T03:11:49.744Z,5.85
2022-10-26T03:12:21.554Z,6.32
2022-10-26T03:12:53.471Z,6.78
2022-10-26T03:13:25.301Z,7.62
2022-10-26T03:13:57.189Z,7.37
2022-10-26T03:14:28.999Z,7.72
2022-10-26T03:15:00.842Z,7.95
2022-10-26T03:15:33.000Z,8.32
2022-10-26T03:16:04.946Z,6.80
2022-10-26T03:16:36.769Z,6.60
2022-10-26T03:17:08.646Z,6.20
2022-10-26T03:17:40.494Z,6.50
2022-10-26T03:18:12.344Z,5.80
2022-10-26T03:18:44.220Z,4.95
2022-10-26T03:19:16.483Z,4.97
2022-10-26T03:19:48.316Z,5.72
2022-10-26T03:20:20.192Z,5.78
2022-10-26T03:20:52.345Z,4.93
2022-10-26T03:21:24.207Z,4.85
2022-10-26T03:21:56.064Z,4.37
2022-10-26T03:22:27.882Z,4.32
2022-10-26T03:22:59.707Z,4.82
2022-10-26T03:23:31.511Z,4.50
2022-10-26T03:24:03.529Z,3.95
2022-10-26T03:24:35.378Z,4.20
2022-10-26T03:25:40.554Z,3.30
2022-10-26T03:26:12.686Z,3.12
2022-10-26T03:26:44.553Z,3.87
2022-10-26T03:27:16.369Z,3.33
2022-10-26T03:27:48.387Z,2.72
2022-10-26T03:28:20.414Z,2.95
2022-10-26T03:28:52.317Z,2.67
2022-10-26T03:29:24.145Z,3.28
2022-10-26T03:29:56.053Z,2.97
2022-10-26T03:30:29.408Z,2.35
2022-10-26T03:31:01.289Z,2.70
2022-10-26T03:31:33.404Z,2.58
2022-10-26T03:32:05.725Z,2.30
2022-10-26T03:32:38.465Z,2.10
2022-10-26T03:33:10.356Z,2.55
2022-10-26T03:33:42.227Z,2.75
2022-10-26T03:34:14.136Z,2.53
2022-10-26T03:34:46.013Z,2.55
2022-10-26T03:35:17.999Z,2.50
2022-10-26T03:35:57.430Z,3.50
2022-10-26T03:36:29.290Z,3.00
2022-10-26T03:37:01.634Z,5.95
2022-10-26T03:37:33.471Z,8.18
2022-10-26T03:38:05.634Z,8.15
2022-10-26T03:38:37.496Z,8.68
2022-10-26T03:39:09.387Z,7.87
2022-10-26T03:39:41.203Z,8.65
2022-10-26T03:40:13.229Z,8.07
2022-10-26T03:40:45.138Z,7.10
2022-10-26T03:41:16.971Z,4.97
2022-10-26T03:41:48.903Z,4.90
2022-10-26T03:42:21.081Z,3.90
2022-10-26T03:42:53.097Z,4.15
2022-10-26T03:43:25.071Z,4.85
2022-10-26T03:43:56.925Z,5.43
2022-10-26T03:44:28.840Z,4.25
2022-10-26T03:45:00.652Z,5.32
2022-10-26T03:45:32.967Z,5.37
2022-10-26T03:46:04.778Z,5.20
2022-10-26T03:46:36.592Z,4.22
2022-10-26T03:47:08.570Z,3.67
2022-10-26T03:47:44.036Z,3.50
2022-10-26T03:48:16.109Z,3.35
2022-10-26T03:48:47.987Z,3.00
2022-10-26T03:49:19.790Z,2.50
2022-10-26T03:49:51.591Z,2.50
2022-10-26T03:50:23.494Z,2.62
2022-10-26T03:50:59.298Z,2.85
2022-10-26T03:51:31.332Z,2.67
2022-10-26T03:52:03.296Z,2.55
2022-10-26T03:52:35.194Z,2.42
2022-10-26T03:53:07.819Z,2.53
2022-10-26T03:53:39.639Z,2.50
2022-10-26T03:54:11.644Z,3.03
2022-10-26T03:54:43.533Z,2.08
2022-10-26T03:55:15.826Z,2.35
2022-10-26T03:55:47.639Z,2.55
2022-10-26T03:56:19.454Z,1.98
2022-10-26T03:56:55.102Z,2.00
2022-10-26T03:57:27.244Z,2.00
2022-10-26T03:57:59.082Z,2.12
2022-10-26T03:58:31.214Z,2.05
2022-10-26T03:59:03.750Z,2.08
2022-10-26T03:59:35.633Z,2.00
2022-10-26T04:00:08.037Z,1.80
2022-10-26T04:00:43.344Z,1.80
2022-10-26T04:01:15.502Z,2.30
2022-10-26T04:01:47.370Z,2.00
2022-10-26T04:02:19.257Z,1.90
2022-10-26T04:02:59.402Z,2.03
2022-10-26T04:03:31.219Z,2.00
2022-10-26T04:04:03.153Z,2.35
2022-10-26T04:04:35.079Z,1.98
2022-10-26T04:05:07.662Z,2.90
2022-10-26T04:05:39.506Z,2.05
2022-10-26T04:06:11.366Z,2.00
2022-10-26T04:06:43.544Z,2.40
2022-10-26T04:07:15.412Z,2.25
2022-10-26T04:07:58.741Z,2.10
2022-10-26T04:08:30.681Z,2.10
2022-10-26T04:09:04.057Z,2.33
2022-10-26T04:09:35.962Z,2.37
2022-10-26T04:10:08.381Z,2.78
2022-10-26T04:10:40.249Z,2.80
2022-10-26T04:11:12.121Z,2.90
2022-10-26T04:11:44.275Z,3.03
2022-10-26T04:12:16.127Z,2.70
2022-10-26T04:12:48.218Z,2.50
2022-10-26T04:13:20.168Z,2.65
2022-10-26T04:13:51.994Z,2.40
2022-10-26T04:14:24.285Z,2.53
2022-10-26T04:14:58.162Z,2.08
2022-10-26T04:15:30.457Z,2.03
2022-10-26T04:16:02.341Z,2.37
2022-10-26T04:16:34.196Z,2.50
2022-10-26T04:17:06.389Z,2.40
2022-10-26T04:17:38.425Z,2.60
2022-10-26T04:18:12.989Z,2.53
2022-10-26T04:18:46.144Z,2.53
2022-10-26T04:19:18.152Z,2.40
2022-10-26T04:19:49.952Z,2.15
2022-10-26T04:20:21.782Z,2.55
2022-10-26T04:20:53.605Z,2.20
2022-10-26T04:21:25.475Z,2.20
2022-10-26T04:21:57.320Z,2.62
2022-10-26T04:22:29.468Z,2.20
2022-10-26T04:23:03.532Z,2.42
2022-10-26T04:23:35.445Z,2.60
2022-10-26T04:24:07.354Z,2.20
2022-10-26T04:24:39.218Z,2.28
2022-10-26T04:25:12.361Z,2.40
2022-10-26T04:25:44.766Z,2.70
2022-10-26T04:26:16.595Z,2.53
2022-10-26T04:26:48.503Z,2.45
2022-10-26T04:27:20.331Z,2.53
2022-10-26T04:27:52.877Z,2.62
2022-10-26T04:28:24.792Z,2.55
2022-10-26T04:28:56.724Z,2.72
2022-10-26T04:29:28.551Z,3.22
2022-10-26T04:30:00.363Z,2.62
2022-10-26T04:30:33.305Z,2.40
2022-10-26T04:31:05.245Z,2.60
2022-10-26T04:31:37.128Z,2.60
2022-10-26T04:32:09.130Z,3.30
2022-10-26T04:32:41.021Z,2.40
2022-10-26T04:33:13.140Z,2.62
2022-10-26T04:33:45.131Z,2.87
2022-10-26T04:34:16.981Z,3.00
2022-10-26T04:34:48.823Z,3.60
2022-10-26T04:35:20.661Z,2.60
2022-10-26T04:35:52.501Z,2.67
2022-10-26T04:36:24.326Z,2.87
2022-10-26T04:36:56.285Z,2.60
2022-10-26T04:37:28.105Z,2.58
2022-10-26T04:38:01.604Z,2.87
2022-10-26T04:38:33.785Z,2.62
2022-10-26T04:39:05.631Z,2.47
2022-10-26T04:39:37.546Z,3.30
2022-10-26T04:40:09.769Z,3.00
2022-10-26T04:40:41.648Z,3.28
2022-10-26T04:41:13.510Z,3.10
2022-10-26T04:41:45.395Z,3.42
2022-10-26T04:42:17.272Z,3.20
2022-10-26T04:42:49.436Z,3.17
2022-10-26T04:43:21.474Z,3.60
2022-10-26T04:43:53.670Z,3.17
2022-10-26T04:44:25.548Z,4.12
2022-10-26T04:44:57.368Z,3.40
2022-10-26T04:45:31.027Z,3.72
2022-10-26T04:46:03.140Z,3.78
2022-10-26T04:46:35.083Z,3.97
2022-10-26T04:47:06.941Z,2.90
2022-10-26T04:47:38.960Z,3.20
2022-10-26T04:48:12.398Z,3.62
2022-10-26T04:48:44.347Z,3.05
2022-10-26T04:49:16.514Z,3.17
2022-10-26T04:49:50.552Z,3.03
2022-10-26T04:50:23.790Z,3.60
2022-10-26T04:51:01.625Z,2.95
2022-10-26T04:51:33.453Z,3.50
2022-10-26T04:52:06.204Z,2.90
2022-10-26T04:52:38.245Z,2.85
2022-10-26T04:53:10.516Z,3.05
2022-10-26T04:53:44.416Z,3.00
2022-10-26T04:54:16.550Z,3.58
2022-10-26T04:54:48.370Z,1.73
2022-10-26T04:55:20.208Z,4.37
2022-10-26T04:56:01.712Z,4.22
2022-10-26T04:56:34.216Z,4.37
2022-10-26T04:57:06.186Z,3.90
2022-10-26T04:57:38.016Z,3.72
2022-10-26T04:58:09.862Z,3.30
2022-10-26T04:58:41.641Z,3.62
2022-10-26T04:59:13.457Z,3.45
2022-10-26T04:59:45.562Z,3.00
2022-10-26T05:00:17.498Z,3.35
2022-10-26T05:00:49.328Z,3.55
2022-10-26T05:01:21.815Z,3.37
2022-10-26T05:01:53.943Z,3.33
2022-10-26T05:02:26.537Z,3.05
2022-10-26T05:03:03.537Z,3.40
2022-10-26T05:03:35.340Z,3.10
2022-10-26T05:04:07.172Z,3.40
2022-10-26T05:04:39.006Z,3.28
2022-10-26T05:05:14.220Z,3.67
2022-10-26T05:05:50.234Z,3.67
2022-10-26T05:06:22.331Z,3.97
2022-10-26T05:06:54.188Z,3.53
2022-10-26T05:07:26.005Z,3.35
2022-10-26T05:07:57.986Z,3.42
2022-10-26T05:08:30.039Z,4.95
2022-10-26T05:09:02.524Z,4.65
2022-10-26T05:09:34.318Z,4.45
2022-10-26T05:10:06.755Z,4.55
2022-10-26T05:10:39.093Z,5.20
2022-10-26T05:11:11.182Z,5.85
2022-10-26T05:11:43.069Z,5.97
2022-10-26T05:12:14.889Z,6.00
2022-10-26T05:12:54.404Z,6.20
2022-10-26T05:13:59.074Z,7.18
2022-10-26T05:14:31.011Z,7.50
2022-10-26T05:15:05.156Z,6.53
2022-10-26T05:15:39.875Z,6.70
2022-10-26T05:16:11.754Z,8.15
2022-10-26T05:16:44.663Z,6.75
2022-10-26T05:17:16.481Z,6.22
2022-10-26T05:17:57.380Z,6.15
2022-10-26T05:18:29.229Z,6.22
2022-10-26T05:19:01.231Z,6.20
2022-10-26T05:19:33.069Z,6.05
2022-10-26T05:20:06.221Z,6.37
2022-10-26T05:20:38.233Z,6.15
2022-10-26T05:21:10.455Z,6.18
2022-10-26T05:21:42.408Z,6.68
2022-10-26T05:22:14.289Z,6.65
2022-10-26T05:22:52.795Z,7.90
2022-10-26T05:23:24.665Z,7.30
2022-10-26T05:23:56.495Z,7.85
2022-10-26T05:24:28.432Z,7.20
2022-10-26T05:25:00.246Z,7.22
2022-10-26T05:25:34.737Z,7.68
2022-10-26T05:26:06.691Z,7.40
2022-10-26T05:26:38.843Z,7.07
2022-10-26T05:27:10.670Z,8.10
2022-10-26T05:27:42.494Z,7.80
2022-10-26T05:28:15.586Z,8.25
2022-10-26T05:28:47.670Z,7.57
2022-10-26T05:29:19.484Z,8.85
2022-10-26T05:29:51.350Z,7.57
2022-10-26T05:30:23.169Z,7.90
2022-10-26T05:30:55.005Z,8.38
2022-10-26T05:31:26.914Z,8.52
2022-10-26T05:31:59.049Z,8.23
2022-10-26T05:32:30.915Z,7.90
2022-10-26T05:33:05.919Z,9.07
2022-10-26T05:33:37.723Z,8.40
2022-10-26T05:34:09.610Z,8.05
2022-10-26T05:34:41.664Z,8.90
2022-10-26T05:35:13.595Z,8.32
2022-10-26T05:35:45.407Z,8.75
2022-10-26T05:36:18.245Z,8.85
2022-10-26T05:36:53.315Z,9.30
2022-10-26T05:37:28.805Z,8.85
2022-10-26T05:38:06.719Z,8.82
2022-10-26T05:38:38.587Z,9.02
2022-10-26T05:39:10.463Z,8.50
2022-10-26T05:39:43.517Z,9.48
2022-10-26T05:40:16.692Z,9.10
2022-10-26T05:40:53.306Z,9.82
2022-10-26T05:41:25.345Z,9.07
2022-10-26T05:41:57.273Z,9.30
2022-10-26T05:42:29.438Z,8.95
2022-10-26T05:43:04.390Z,8.27
2022-10-26T05:43:36.294Z,9.00
2022-10-26T05:44:08.143Z,8.60
2022-10-26T05:44:40.048Z,8.23
2022-10-26T05:45:13.094Z,7.87
2022-10-26T05:45:45.344Z,8.77
2022-10-26T05:46:17.223Z,7.85
2022-10-26T05:47:25.919Z,8.18
2022-10-26T05:48:01.627Z,8.55
2022-10-26T05:48:35.007Z,7.93
2022-10-26T05:49:06.839Z,8.52
2022-10-26T05:49:38.647Z,7.72
2022-10-26T05:50:12.189Z,8.68
2022-10-26T05:50:45.879Z,7.50
2022-10-26T05:51:17.817Z,7.97
2022-10-26T05:51:49.693Z,7.72
2022-10-26T05:52:21.528Z,7.68
2022-10-26T05:52:53.433Z,7.35
2022-10-26T05:53:25.547Z,8.32
2022-10-26T05:53:57.644Z,7.75
2022-10-26T05:54:29.471Z,7.95
2022-10-26T05:55:01.343Z,7.30
2022-10-26T05:55:33.753Z,7.32
2022-10-26T05:56:32.008Z,7.32
2022-10-26T05:57:04.157Z,7.18
2022-10-26T05:57:37.067Z,7.37
2022-10-26T05:58:13.655Z,6.53
2022-10-26T05:58:47.465Z,7.20
2022-10-26T05:59:19.576Z,6.20
2022-10-26T05:59:51.563Z,7.12
2022-10-26T06:00:25.766Z,6.28
2022-10-26T06:00:57.816Z,6.80
2022-10-26T06:01:40.738Z,6.12
2022-10-26T06:02:31.720Z,5.75
2022-10-26T06:03:18.759Z,6.62
2022-10-26T06:03:56.591Z,6.57
2022-10-26T06:04:36.005Z,5.35
2022-10-26T06:05:11.183Z,5.40
2022-10-26T06:05:52.941Z,4.72
2022-10-26T06:06:37.229Z,4.40
2022-10-26T06:07:14.823Z,4.45
2022-10-26T06:07:47.470Z,4.85
2022-10-26T06:08:21.354Z,4.78
2022-10-26T06:08:53.420Z,4.72
2022-10-26T06:09:25.587Z,4.95
2022-10-26T06:09:57.964Z,5.28
2022-10-26T06:10:30.044Z,4.90
2022-10-26T06:11:03.262Z,5.07
2022-10-26T06:11:35.771Z,4.90
2022-10-26T06:12:08.773Z,4.87
2022-10-26T06:12:40.878Z,4.95
2022-10-26T06:13:12.960Z,5.10
2022-10-26T06:13:45.132Z,5.68
2022-10-26T06:14:17.286Z,4.50
2022-10-26T06:14:49.427Z,5.72
2022-10-26T06:15:22.279Z,5.40
2022-10-26T06:16:23.540Z,5.00
2022-10-26T06:17:41.309Z,4.28
2022-10-26T06:18:22.351Z,4.53
2022-10-26T06:19:26.255Z,4.72
2022-10-26T06:20:36.663Z,4.53
2022-10-26T06:21:18.922Z,4.30
2022-10-26T06:21:53.553Z,4.40
2022-10-26T06:22:38.149Z,4.90
2022-10-26T06:23:43.768Z,4.80
2022-10-26T06:24:21.597Z,4.78
2022-10-26T06:25:18.933Z,4.50
2022-10-26T06:26:09.100Z,4.90
2022-10-26T06:26:56.404Z,4.05
2022-10-26T06:27:35.918Z,4.20
2022-10-26T06:28:37.015Z,3.45
2022-10-26T06:29:19.093Z,4.15
2022-10-26T06:30:02.016Z,5.00
2022-10-26T06:30:34.037Z,4.37
2022-10-26T06:31:06.004Z,4.47
2022-10-26T06:31:37.928Z,3.97
2022-10-26T06:32:10.944Z,4.55
2022-10-26T06:32:46.543Z,3.83
2022-10-26T06:33:29.162Z,4.10
2022-10-26T06:34:01.818Z,3.45
2022-10-26T06:34:38.784Z,4.20
2022-10-26T06:35:37.452Z,4.37
2022-10-26T06:36:18.012Z,3.95
2022-10-26T06:36:50.757Z,5.18
2022-10-26T06:37:24.942Z,4.40
2022-10-26T06:38:02.252Z,4.22
2022-10-26T06:38:36.892Z,4.72
2022-10-26T06:39:12.063Z,4.37
2022-10-26T06:39:48.967Z,4.47
2022-10-26T06:40:24.041Z,4.65
2022-10-26T06:40:57.410Z,4.15
2022-10-26T06:41:32.487Z,4.22
2022-10-26T06:42:04.621Z,4.50
2022-10-26T06:42:36.828Z,4.70
2022-10-26T06:43:26.671Z,4.82
2022-10-26T06:43:58.762Z,4.70
2022-10-26T06:44:30.969Z,4.80
2022-10-26T06:45:03.202Z,4.82
2022-10-26T06:45:36.586Z,5.07
2022-10-26T06:46:36.094Z,5.93
2022-10-26T06:47:24.389Z,7.32
2022-10-26T06:48:18.868Z,9.57
2022-10-26T06:49:23.107Z,8.00
2022-10-26T06:50:12.765Z,10.63
2022-10-26T06:50:51.688Z,8.20
2022-10-26T06:51:25.093Z,8.07
2022-10-26T06:52:02.644Z,6.00
2022-10-26T06:52:41.568Z,5.87
2022-10-26T06:53:23.452Z,6.57
2022-10-26T06:54:28.431Z,6.57
2022-10-26T06:55:00.804Z,7.30
2022-10-26T06:55:41.970Z,8.70
2022-10-26T06:56:14.103Z,8.90
2022-10-26T06:56:46.815Z,8.85
2022-10-26T06:57:23.790Z,8.30
2022-10-26T06:57:56.336Z,8.00
2022-10-26T06:58:31.035Z,7.78
2022-10-26T06:59:16.695Z,7.30
2022-10-26T06:59:54.114Z,6.93
2022-10-26T07:00:26.547Z,6.93
2022-10-26T07:00:58.747Z,7.20
2022-10-26T07:01:30.660Z,6.90
2022-10-26T07:02:05.600Z,8.98
2022-10-26T07:02:38.587Z,7.45
2022-10-26T07:03:10.492Z,7.62
2022-10-26T07:03:42.607Z,8.07
2022-10-26T07:04:14.767Z,8.63
2022-10-26T07:04:47.295Z,8.10
2022-10-26T07:05:19.241Z,7.93
2022-10-26T07:05:51.271Z,7.82
2022-10-26T07:06:23.131Z,8.23
2022-10-26T07:06:57.122Z,9.10
2022-10-26T07:07:31.137Z,8.70
2022-10-26T07:08:03.176Z,8.32
2022-10-26T07:08:35.088Z,9.40
2022-10-26T07:09:07.035Z,8.43
2022-10-26T07:09:42.429Z,10.13
2022-10-26T07:10:15.380Z,8.82
2022-10-26T07:10:47.533Z,9.55
2022-10-26T07:11:19.369Z,9.82
2022-10-26T07:11:51.541Z,9.80
2022-10-26T07:12:23.412Z,10.68
2022-10-26T07:12:55.245Z,10.80
2022-10-26T07:13:27.112Z,9.98
2022-10-26T07:14:00.040Z,9.38
2022-10-26T07:14:31.951Z,10.38
2022-10-26T07:15:06.528Z,9.90
2022-10-26T07:15:40.739Z,10.43
2022-10-26T07:16:12.602Z,9.88
2022-10-26T07:16:44.432Z,9.88
2022-10-26T07:17:17.098Z,8.82
2022-10-26T07:17:49.915Z,9.23
2022-10-26T07:18:21.957Z,9.40
2022-10-26T07:18:53.811Z,9.50
2022-10-26T07:19:25.681Z,9.07
2022-10-26T07:19:58.069Z,8.90
2022-10-26T07:20:30.387Z,9.95
2022-10-26T07:21:02.319Z,10.57
2022-10-26T07:21:34.269Z,11.98
2022-10-26T07:22:06.502Z,10.00
2022-10-26T07:22:38.548Z,9.80
2022-10-26T07:23:13.383Z,9.63
2022-10-26T07:23:45.239Z,8.20
2022-10-26T07:24:17.080Z,8.23
2022-10-26T07:24:52.284Z,7.97
2022-10-26T07:25:25.686Z,6.53
2022-10-26T07:26:00.257Z,6.35
2022-10-26T07:26:32.143Z,7.05
2022-10-26T07:27:04.054Z,6.82
2022-10-26T07:27:36.085Z,6.62
2022-10-26T07:28:10.506Z,6.47
2022-10-26T07:28:42.629Z,6.70
2022-10-26T07:29:16.387Z,6.50
2022-10-26T07:29:48.277Z,6.70
2022-10-26T07:30:20.088Z,6.62
2022-10-26T07:30:56.090Z,5.65
2022-10-26T07:31:28.406Z,5.97
2022-10-26T07:32:00.217Z,5.80
2022-10-26T07:32:33.043Z,5.10
2022-10-26T07:33:07.962Z,5.22
2022-10-26T07:33:41.547Z,5.78
2022-10-26T07:34:13.642Z,5.30
2022-10-26T07:34:45.557Z,5.45
2022-10-26T07:35:17.412Z,5.95
2022-10-26T07:35:49.355Z,5.10
2022-10-26T07:36:21.547Z,5.15
2022-10-26T07:36:53.702Z,6.03
2022-10-26T07:37:25.562Z,5.50
2022-10-26T07:37:59.104Z,5.60
2022-10-26T07:38:31.079Z,6.45
2022-10-26T07:39:04.254Z,5.70
2022-10-26T07:39:36.724Z,4.72
2022-10-26T07:40:10.192Z,5.50
2022-10-26T07:40:42.183Z,5.05
2022-10-26T07:41:14.379Z,4.72
2022-10-26T07:41:47.133Z,5.00
2022-10-26T07:42:19.391Z,5.55
2022-10-26T07:42:51.771Z,5.53
2022-10-26T07:43:23.910Z,5.15
2022-10-26T07:43:55.796Z,5.30
2022-10-26T07:44:27.862Z,4.75
2022-10-26T07:44:59.664Z,4.97
2022-10-26T07:45:31.609Z,5.30
2022-10-26T07:46:03.742Z,4.60
2022-10-26T07:46:36.142Z,5.37
2022-10-26T07:47:08.105Z,5.47
2022-10-26T07:47:40.267Z,5.05
2022-10-26T07:48:12.117Z,5.28
2022-10-26T07:49:21.351Z,5.07
2022-10-26T07:49:55.905Z,5.47
2022-10-26T07:50:27.872Z,5.03
2022-10-26T07:51:03.062Z,4.53
2022-10-26T07:51:35.168Z,5.03
2022-10-26T07:52:07.084Z,4.47
2022-10-26T07:52:41.761Z,4.43
2022-10-26T07:53:16.664Z,4.55
2022-10-26T07:53:49.025Z,4.78
2022-10-26T07:54:20.948Z,5.55
2022-10-26T07:54:52.772Z,4.12
2022-10-26T07:55:24.619Z,4.70
2022-10-26T07:55:57.556Z,4.70
2022-10-26T07:56:29.948Z,4.80